Tulare, CA

12:04 AM PST on December 03, 2016 (GMT -0800)
APRSWXNET | | Change Station
Active Advisory: Freeze Warning Active Notice: Public Information Statement

Elev 288 ft 36.20 °N, 119.33 °W | Updated 20 minutes ago

Clear
Clear
40 °F
Feels Like 40 °F
N
0
Wind Variable Wind from South
Gusts 0.0 mph

Today
High -- | Low -- °F
--% Chance of Precip.
Yesterday
High -- | Low -- °F
Precip. -- in
Pressure 30.28 in
Visibility 1.8 miles
Clouds Clear
Windchill 40 °F
Dew Point 38 °F
Humidity 92%
Rainfall in
Snow Depth Not available.
6:52 AM 4:42 PM
Waxing Crescent, 13% visible
METAR KVIS 030756Z AUTO 00000KT 1 3/4SM BR CLR 03/03 A3025 RMK AO2 SLP252 T00330028 401170022
Pressure 30.28 in
Visibility 1.8 miles
Clouds Clear
Windchill 40 °F
Dew Point 38 °F
Humidity 92%
Rainfall in
Snow Depth Not available.
6:52 AM 4:42 PM
Waxing Crescent, 13% visible
METAR KVIS 030756Z AUTO 00000KT 1 3/4SM BR CLR 03/03 A3025 RMK AO2 SLP252 T00330028 401170022

10-Day Weather Forecast

Almanac

Astronomy

Dec. 03, 2016 Rise Set
Actual Time
Civil Twilight
Nautical Twilight
Astronomical Twilight
Moon
Length of Visible Light
Length of Day
Tomorrow will be .
, % of the Moon is Illuminated

Today's Extremes

State Highs State Lows

Community

WunderPhotos

Upload Photos

1,955,432 photos uploaded!

WunderBlog® & News

Nearby

Air Quality

  Air Quality AQ Index Pollutant
Not available.

Snow Depth

Station Depth Elevation

Earthquake Activity

City Distance Mag. Time & Date
Minimum magnitude displayed is 2.5.

Coastal Water Temperatures

Place Temperature

Stations

Nearby Weather Stations

Station Location Temp. Windchill Dew Point Humidity Wind Precip. Elev Updated Type
                   

Watches & Warnings

Freeze Warning
Issued: 9:51 PM PST Dec. 2, 2016 – National Weather Service

... Freeze warning remains in effect until 9 am PST Saturday...

* minimum temperatures of 28 to 32 degrees are likely across
much of the valley late Friday night into Saturday morning.
Minimum temperatures as low as 25 degrees are possible in a
few of the coldest rural locations... while urban areas such as
Fresno and Bakersfield remain just above freezing.

* Durations of below freezing temperatures of 3 to 6 hours are
possible.

* Impacts... below freezing temperatures may damage or kill crops
or other sensitive vegetation.

Precautionary/preparedness actions...

A freeze warning means sub-freezing temperatures are imminent or
highly likely. These conditions will kill crops and other
sensitive vegetation.



Dudley